sensor_id;sensor_type;location;lat;lon;timestamp;pressure;altitude;pressure_sealevel;temperature;humidity
45350;BME280;31086;51.702;-1.106;2022-07-06T00:01:18;102081.86;;;17.62;46.10
45350;BME280;31086;51.702;-1.106;2022-07-06T00:03:46;102082.10;;;16.95;46.47
45350;BME280;31086;51.702;-1.106;2022-07-06T00:06:13;102081.50;;;17.02;46.36
45350;BME280;31086;51.702;-1.106;2022-07-06T00:08:40;102083.78;;;16.94;46.42
45350;BME280;31086;51.702;-1.106;2022-07-06T00:11:08;102080.25;;;17.31;46.16
45350;BME280;31086;51.702;-1.106;2022-07-06T00:13:35;102072.74;;;16.77;47.01
45350;BME280;31086;51.702;-1.106;2022-07-06T00:16:03;102075.80;;;16.50;47.39
45350;BME280;31086;51.702;-1.106;2022-07-06T00:18:30;102081.11;;;16.71;47.04
45350;BME280;31086;51.702;-1.106;2022-07-06T00:20:57;102085.41;;;16.74;47.27
45350;BME280;31086;51.702;-1.106;2022-07-06T00:23:24;102083.42;;;16.48;47.64
45350;BME280;31086;51.702;-1.106;2022-07-06T00:25:51;102080.88;;;16.98;47.83
45350;BME280;31086;51.702;-1.106;2022-07-06T00:28:19;102080.59;;;16.69;47.95
45350;BME280;31086;51.702;-1.106;2022-07-06T00:30:46;102083.00;;;16.52;47.91
45350;BME280;31086;51.702;-1.106;2022-07-06T00:33:13;102085.86;;;16.41;48.54
45350;BME280;31086;51.702;-1.106;2022-07-06T00:35:40;102084.36;;;16.50;48.47
45350;BME280;31086;51.702;-1.106;2022-07-06T00:38:08;102087.68;;;16.13;49.04
45350;BME280;31086;51.702;-1.106;2022-07-06T00:40:35;102085.43;;;16.05;49.39
45350;BME280;31086;51.702;-1.106;2022-07-06T00:43:02;102085.37;;;16.12;49.57
45350;BME280;31086;51.702;-1.106;2022-07-06T00:45:29;102088.31;;;16.06;49.84
45350;BME280;31086;51.702;-1.106;2022-07-06T00:47:56;102085.67;;;15.98;50.08
45350;BME280;31086;51.702;-1.106;2022-07-06T00:50:23;102083.05;;;15.76;49.80
45350;BME280;31086;51.702;-1.106;2022-07-06T00:52:53;102081.64;;;15.78;49.27
45350;BME280;31086;51.702;-1.106;2022-07-06T00:55:22;102081.95;;;16.06;48.55
45350;BME280;31086;51.702;-1.106;2022-07-06T00:57:49;102081.08;;;16.00;49.04
45350;BME280;31086;51.702;-1.106;2022-07-06T01:00:20;102077.91;;;15.49;49.60
45350;BME280;31086;51.702;-1.106;2022-07-06T01:02:48;102079.73;;;15.88;50.13
45350;BME280;31086;51.702;-1.106;2022-07-06T01:05:15;102074.94;;;15.55;50.50
45350;BME280;31086;51.702;-1.106;2022-07-06T01:07:44;102080.77;;;15.35;50.81
45350;BME280;31086;51.702;-1.106;2022-07-06T01:10:13;102080.00;;;15.30;50.78
45350;BME280;31086;51.702;-1.106;2022-07-06T01:12:43;102081.67;;;15.47;50.41
45350;BME280;31086;51.702;-1.106;2022-07-06T01:15:12;102085.97;;;15.20;50.47
45350;BME280;31086;51.702;-1.106;2022-07-06T01:17:40;102087.62;;;15.30;50.58
45350;BME280;31086;51.702;-1.106;2022-07-06T01:20:09;102087.18;;;15.59;50.74
45350;BME280;31086;51.702;-1.106;2022-07-06T01:22:37;102090.11;;;15.19;51.17
45350;BME280;31086;51.702;-1.106;2022-07-06T01:25:05;102084.97;;;15.49;50.14
45350;BME280;31086;51.702;-1.106;2022-07-06T01:27:34;102088.86;;;15.78;49.77
45350;BME280;31086;51.702;-1.106;2022-07-06T01:30:02;102094.15;;;15.28;50.19
45350;BME280;31086;51.702;-1.106;2022-07-06T01:32:29;102098.28;;;15.84;49.83
45350;BME280;31086;51.702;-1.106;2022-07-06T01:34:56;102100.98;;;16.13;49.57
45350;BME280;31086;51.702;-1.106;2022-07-06T01:37:23;102102.03;;;15.75;49.91
45350;BME280;31086;51.702;-1.106;2022-07-06T01:39:50;102103.25;;;16.22;49.49
45350;BME280;31086;51.702;-1.106;2022-07-06T01:42:17;102103.53;;;16.34;49.23
45350;BME280;31086;51.702;-1.106;2022-07-06T01:44:45;102102.97;;;16.21;49.74
45350;BME280;31086;51.702;-1.106;2022-07-06T01:47:12;102102.79;;;16.21;49.53
45350;BME280;31086;51.702;-1.106;2022-07-06T01:49:39;102102.02;;;15.57;50.46
45350;BME280;31086;51.702;-1.106;2022-07-06T01:52:07;102105.61;;;16.23;50.17
45350;BME280;31086;51.702;-1.106;2022-07-06T01:54:34;102105.29;;;15.88;50.43
45350;BME280;31086;51.702;-1.106;2022-07-06T01:57:02;102098.93;;;15.63;51.25
45350;BME280;31086;51.702;-1.106;2022-07-06T01:59:29;102091.38;;;15.76;51.11
45350;BME280;31086;51.702;-1.106;2022-07-06T02:01:56;102089.13;;;15.87;51.07
45350;BME280;31086;51.702;-1.106;2022-07-06T02:04:23;102085.40;;;15.51;51.37
45350;BME280;31086;51.702;-1.106;2022-07-06T02:06:50;102088.31;;;15.01;53.16
45350;BME280;31086;51.702;-1.106;2022-07-06T02:09:17;102089.01;;;15.49;52.05
45350;BME280;31086;51.702;-1.106;2022-07-06T02:11:45;102091.15;;;15.31;52.30
45350;BME280;31086;51.702;-1.106;2022-07-06T02:14:12;102091.37;;;15.51;52.56
45350;BME280;31086;51.702;-1.106;2022-07-06T02:16:39;102090.39;;;14.90;53.21
45350;BME280;31086;51.702;-1.106;2022-07-06T02:19:06;102084.35;;;15.73;51.98
45350;BME280;31086;51.702;-1.106;2022-07-06T02:21:34;102084.39;;;15.80;52.00
45350;BME280;31086;51.702;-1.106;2022-07-06T02:24:01;102085.95;;;15.96;51.73
45350;BME280;31086;51.702;-1.106;2022-07-06T02:26:29;102080.66;;;15.90;51.88
45350;BME280;31086;51.702;-1.106;2022-07-06T02:28:56;102075.98;;;15.38;52.80
45350;BME280;31086;51.702;-1.106;2022-07-06T02:31:23;102076.71;;;15.96;52.12
45350;BME280;31086;51.702;-1.106;2022-07-06T02:33:50;102081.98;;;15.86;52.28
45350;BME280;31086;51.702;-1.106;2022-07-06T02:36:17;102087.07;;;15.94;52.20
45350;BME280;31086;51.702;-1.106;2022-07-06T02:38:44;102089.07;;;15.55;52.81
45350;BME280;31086;51.702;-1.106;2022-07-06T02:41:11;102094.50;;;15.79;52.53
45350;BME280;31086;51.702;-1.106;2022-07-06T02:43:39;102096.79;;;15.89;52.55
45350;BME280;31086;51.702;-1.106;2022-07-06T02:46:07;102094.48;;;15.96;52.90
45350;BME280;31086;51.702;-1.106;2022-07-06T02:48:35;102086.09;;;15.97;52.65
45350;BME280;31086;51.702;-1.106;2022-07-06T02:51:02;102089.28;;;16.08;52.55
45350;BME280;31086;51.702;-1.106;2022-07-06T02:53:29;102087.85;;;16.20;52.05
45350;BME280;31086;51.702;-1.106;2022-07-06T02:55:56;102084.92;;;15.98;52.69
45350;BME280;31086;51.702;-1.106;2022-07-06T02:58:23;102087.83;;;16.01;52.33
45350;BME280;31086;51.702;-1.106;2022-07-06T03:00:51;102085.17;;;15.98;52.49
45350;BME280;31086;51.702;-1.106;2022-07-06T03:03:18;102075.63;;;15.67;52.45
45350;BME280;31086;51.702;-1.106;2022-07-06T03:05:45;102071.17;;;15.90;53.04
45350;BME280;31086;51.702;-1.106;2022-07-06T03:08:12;102071.40;;;16.01;52.44
45350;BME280;31086;51.702;-1.106;2022-07-06T03:10:39;102068.02;;;15.76;52.87
45350;BME280;31086;51.702;-1.106;2022-07-06T03:13:07;102071.62;;;15.49;53.78
45350;BME280;31086;51.702;-1.106;2022-07-06T03:15:34;102069.24;;;15.95;53.84
45350;BME280;31086;51.702;-1.106;2022-07-06T03:18:02;102066.44;;;15.59;53.89
45350;BME280;31086;51.702;-1.106;2022-07-06T03:20:29;102067.90;;;15.44;53.99
45350;BME280;31086;51.702;-1.106;2022-07-06T03:22:56;102065.05;;;16.09;53.17
45350;BME280;31086;51.702;-1.106;2022-07-06T03:25:23;102071.44;;;16.03;53.22
45350;BME280;31086;51.702;-1.106;2022-07-06T03:27:50;102068.39;;;16.37;52.69
45350;BME280;31086;51.702;-1.106;2022-07-06T03:30:18;102068.70;;;16.05;53.45
45350;BME280;31086;51.702;-1.106;2022-07-06T03:32:45;102067.22;;;15.88;53.52
45350;BME280;31086;51.702;-1.106;2022-07-06T03:35:12;102057.08;;;15.57;54.55
45350;BME280;31086;51.702;-1.106;2022-07-06T03:37:40;102050.07;;;15.46;55.00
45350;BME280;31086;51.702;-1.106;2022-07-06T03:40:08;102049.51;;;15.32;55.36
45350;BME280;31086;51.702;-1.106;2022-07-06T03:42:36;102056.39;;;15.72;54.94
45350;BME280;31086;51.702;-1.106;2022-07-06T03:45:04;102058.78;;;15.88;54.01
45350;BME280;31086;51.702;-1.106;2022-07-06T03:47:31;102064.18;;;16.44;53.51
45350;BME280;31086;51.702;-1.106;2022-07-06T03:49:58;102064.43;;;16.22;53.64
45350;BME280;31086;51.702;-1.106;2022-07-06T03:52:26;102062.20;;;16.44;53.34
45350;BME280;31086;51.702;-1.106;2022-07-06T03:54:53;102061.93;;;16.18;53.81
45350;BME280;31086;51.702;-1.106;2022-07-06T03:57:20;102058.07;;;15.64;54.72
45350;BME280;31086;51.702;-1.106;2022-07-06T03:59:47;102053.05;;;15.77;54.93
45350;BME280;31086;51.702;-1.106;2022-07-06T04:02:14;102053.87;;;15.44;54.75
45350;BME280;31086;51.702;-1.106;2022-07-06T04:04:41;102056.54;;;15.93;54.00
45350;BME280;31086;51.702;-1.106;2022-07-06T04:07:08;102056.58;;;15.71;54.25
45350;BME280;31086;51.702;-1.106;2022-07-06T04:09:36;102058.67;;;15.73;54.77
45350;BME280;31086;51.702;-1.106;2022-07-06T04:12:04;102053.36;;;15.85;54.30
45350;BME280;31086;51.702;-1.106;2022-07-06T04:14:31;102048.69;;;16.03;54.01
45350;BME280;31086;51.702;-1.106;2022-07-06T04:16:58;102051.78;;;15.59;54.06
45350;BME280;31086;51.702;-1.106;2022-07-06T04:19:26;102054.65;;;16.06;54.27
45350;BME280;31086;51.702;-1.106;2022-07-06T04:21:53;102054.70;;;15.94;54.49
45350;BME280;31086;51.702;-1.106;2022-07-06T04:24:20;102058.80;;;15.98;54.49
45350;BME280;31086;51.702;-1.106;2022-07-06T04:26:47;102057.81;;;16.56;53.46
45350;BME280;31086;51.702;-1.106;2022-07-06T04:29:15;102055.65;;;16.59;53.26
45350;BME280;31086;51.702;-1.106;2022-07-06T04:31:42;102061.74;;;16.76;53.30
45350;BME280;31086;51.702;-1.106;2022-07-06T04:34:09;102056.20;;;16.60;52.73
45350;BME280;31086;51.702;-1.106;2022-07-06T04:36:37;102057.91;;;16.80;52.31
45350;BME280;31086;51.702;-1.106;2022-07-06T04:39:04;102055.67;;;16.77;52.22
45350;BME280;31086;51.702;-1.106;2022-07-06T04:41:31;102057.47;;;16.75;52.22
45350;BME280;31086;51.702;-1.106;2022-07-06T04:43:58;102066.27;;;16.50;52.62
45350;BME280;31086;51.702;-1.106;2022-07-06T04:46:25;102066.06;;;16.90;52.89
45350;BME280;31086;51.702;-1.106;2022-07-06T04:48:52;102062.69;;;16.87;52.74
45350;BME280;31086;51.702;-1.106;2022-07-06T04:51:20;102063.12;;;16.90;52.20
45350;BME280;31086;51.702;-1.106;2022-07-06T04:53:47;102060.04;;;16.62;53.23
45350;BME280;31086;51.702;-1.106;2022-07-06T04:56:14;102053.44;;;16.39;53.78
45350;BME280;31086;51.702;-1.106;2022-07-06T04:58:41;102057.07;;;16.54;53.32
45350;BME280;31086;51.702;-1.106;2022-07-06T05:01:08;102066.24;;;15.19;55.89
45350;BME280;31086;51.702;-1.106;2022-07-06T05:03:35;102067.53;;;15.75;54.91
45350;BME280;31086;51.702;-1.106;2022-07-06T05:06:05;102061.81;;;16.28;54.29
45350;BME280;31086;51.702;-1.106;2022-07-06T05:08:32;102064.75;;;16.32;54.21
45350;BME280;31086;51.702;-1.106;2022-07-06T05:11:00;102074.96;;;16.82;53.84
45350;BME280;31086;51.702;-1.106;2022-07-06T05:13:27;102077.46;;;16.39;54.42
45350;BME280;31086;51.702;-1.106;2022-07-06T05:15:55;102086.32;;;16.40;54.67
45350;BME280;31086;51.702;-1.106;2022-07-06T05:18:22;102087.87;;;15.95;55.64
45350;BME280;31086;51.702;-1.106;2022-07-06T05:20:49;102087.76;;;16.00;55.79
45350;BME280;31086;51.702;-1.106;2022-07-06T05:23:16;102087.49;;;16.25;55.60
45350;BME280;31086;51.702;-1.106;2022-07-06T05:25:43;102082.64;;;16.37;55.12
45350;BME280;31086;51.702;-1.106;2022-07-06T05:28:10;102080.44;;;16.24;55.09
45350;BME280;31086;51.702;-1.106;2022-07-06T05:30:38;102079.28;;;16.59;55.56
45350;BME280;31086;51.702;-1.106;2022-07-06T05:33:05;102078.25;;;16.31;55.98
45350;BME280;31086;51.702;-1.106;2022-07-06T05:35:32;102081.27;;;16.88;55.61
45350;BME280;31086;51.702;-1.106;2022-07-06T05:37:59;102080.14;;;17.17;54.95
45350;BME280;31086;51.702;-1.106;2022-07-06T05:40:26;102090.51;;;16.98;55.85
45350;BME280;31086;51.702;-1.106;2022-07-06T05:42:53;102094.56;;;16.90;56.16
45350;BME280;31086;51.702;-1.106;2022-07-06T05:45:21;102088.37;;;16.49;57.16
45350;BME280;31086;51.702;-1.106;2022-07-06T05:47:48;102092.26;;;16.26;57.59
45350;BME280;31086;51.702;-1.106;2022-07-06T05:50:15;102094.89;;;16.23;57.91
45350;BME280;31086;51.702;-1.106;2022-07-06T05:52:44;102090.56;;;16.11;58.20
45350;BME280;31086;51.702;-1.106;2022-07-06T05:55:12;102086.70;;;16.02;58.48
45350;BME280;31086;51.702;-1.106;2022-07-06T05:57:39;102085.18;;;16.44;57.82
45350;BME280;31086;51.702;-1.106;2022-07-06T06:00:08;102081.96;;;16.35;57.68
45350;BME280;31086;51.702;-1.106;2022-07-06T06:02:37;102083.65;;;16.35;57.97
45350;BME280;31086;51.702;-1.106;2022-07-06T06:05:05;102076.61;;;16.83;57.13
45350;BME280;31086;51.702;-1.106;2022-07-06T06:07:34;102072.78;;;15.88;59.72
45350;BME280;31086;51.702;-1.106;2022-07-06T06:10:02;102073.82;;;15.72;59.49
45350;BME280;31086;51.702;-1.106;2022-07-06T06:12:29;102078.20;;;14.80;61.45
45350;BME280;31086;51.702;-1.106;2022-07-06T06:14:56;102081.14;;;15.64;60.58
45350;BME280;31086;51.702;-1.106;2022-07-06T06:17:23;102084.23;;;16.03;60.36
45350;BME280;31086;51.702;-1.106;2022-07-06T06:19:50;102084.90;;;16.36;58.91
45350;BME280;31086;51.702;-1.106;2022-07-06T06:22:18;102081.83;;;15.87;59.74
45350;BME280;31086;51.702;-1.106;2022-07-06T06:24:45;102087.08;;;15.81;59.85
45350;BME280;31086;51.702;-1.106;2022-07-06T06:27:13;102088.67;;;16.37;59.10
45350;BME280;31086;51.702;-1.106;2022-07-06T06:29:40;102085.58;;;15.06;62.16
45350;BME280;31086;51.702;-1.106;2022-07-06T06:32:08;102079.38;;;16.04;59.81
45350;BME280;31086;51.702;-1.106;2022-07-06T06:34:35;102075.59;;;16.45;60.14
45350;BME280;31086;51.702;-1.106;2022-07-06T06:37:03;102078.33;;;15.73;60.76
45350;BME280;31086;51.702;-1.106;2022-07-06T06:39:31;102089.08;;;16.01;60.83
45350;BME280;31086;51.702;-1.106;2022-07-06T06:41:58;102099.87;;;16.20;60.42
45350;BME280;31086;51.702;-1.106;2022-07-06T06:44:25;102097.39;;;15.98;60.28
45350;BME280;31086;51.702;-1.106;2022-07-06T06:46:52;102101.92;;;16.17;60.98
45350;BME280;31086;51.702;-1.106;2022-07-06T06:49:19;102094.81;;;16.20;61.24
45350;BME280;31086;51.702;-1.106;2022-07-06T06:51:46;102094.29;;;15.43;62.37
45350;BME280;31086;51.702;-1.106;2022-07-06T06:54:13;102099.65;;;16.57;60.60
45350;BME280;31086;51.702;-1.106;2022-07-06T06:56:40;102102.07;;;16.84;59.87
45350;BME280;31086;51.702;-1.106;2022-07-06T06:59:08;102097.31;;;16.87;60.29
45350;BME280;31086;51.702;-1.106;2022-07-06T07:01:35;102094.68;;;16.86;59.79
45350;BME280;31086;51.702;-1.106;2022-07-06T07:04:03;102110.43;;;16.25;61.63
45350;BME280;31086;51.702;-1.106;2022-07-06T07:06:30;102116.06;;;16.39;61.17
45350;BME280;31086;51.702;-1.106;2022-07-06T07:08:57;102119.24;;;16.16;61.77
45350;BME280;31086;51.702;-1.106;2022-07-06T07:11:24;102117.95;;;16.35;61.55
45350;BME280;31086;51.702;-1.106;2022-07-06T07:13:51;102104.87;;;16.36;61.43
45350;BME280;31086;51.702;-1.106;2022-07-06T07:16:18;102087.70;;;16.50;61.65
45350;BME280;31086;51.702;-1.106;2022-07-06T07:18:46;102092.24;;;15.44;64.66
45350;BME280;31086;51.702;-1.106;2022-07-06T07:21:13;102094.73;;;16.49;61.62
45350;BME280;31086;51.702;-1.106;2022-07-06T07:23:40;102091.49;;;15.99;63.49
45350;BME280;31086;51.702;-1.106;2022-07-06T07:26:08;102100.14;;;16.43;62.40
45350;BME280;31086;51.702;-1.106;2022-07-06T07:28:35;102090.58;;;17.01;60.99
45350;BME280;31086;51.702;-1.106;2022-07-06T07:31:03;102095.09;;;16.66;61.57
45350;BME280;31086;51.702;-1.106;2022-07-06T07:33:30;102095.56;;;17.23;60.55
45350;BME280;31086;51.702;-1.106;2022-07-06T07:35:57;102095.96;;;17.31;59.46
45350;BME280;31086;51.702;-1.106;2022-07-06T07:38:24;102088.53;;;17.15;60.32
45350;BME280;31086;51.702;-1.106;2022-07-06T07:40:53;102093.21;;;17.92;59.56
45350;BME280;31086;51.702;-1.106;2022-07-06T07:43:21;102098.33;;;17.19;60.27
45350;BME280;31086;51.702;-1.106;2022-07-06T07:45:48;102092.67;;;17.43;60.13
45350;BME280;31086;51.702;-1.106;2022-07-06T07:48:16;102089.70;;;17.05;61.12
45350;BME280;31086;51.702;-1.106;2022-07-06T07:50:43;102086.26;;;17.24;60.16
45350;BME280;31086;51.702;-1.106;2022-07-06T07:53:10;102092.95;;;17.28;60.68
45350;BME280;31086;51.702;-1.106;2022-07-06T07:55:37;102086.65;;;17.26;60.15
45350;BME280;31086;51.702;-1.106;2022-07-06T07:58:04;102082.70;;;17.09;60.39
45350;BME280;31086;51.702;-1.106;2022-07-06T08:00:32;102079.83;;;17.82;59.09
45350;BME280;31086;51.702;-1.106;2022-07-06T08:03:00;102075.27;;;18.12;58.50
45350;BME280;31086;51.702;-1.106;2022-07-06T08:05:27;102078.60;;;18.19;58.38
45350;BME280;31086;51.702;-1.106;2022-07-06T08:07:54;102085.06;;;17.41;60.89
45350;BME280;31086;51.702;-1.106;2022-07-06T08:10:21;102081.15;;;17.18;61.00
45350;BME280;31086;51.702;-1.106;2022-07-06T08:12:48;102070.90;;;16.88;61.29
45350;BME280;31086;51.702;-1.106;2022-07-06T08:15:15;102065.59;;;17.32;60.23
45350;BME280;31086;51.702;-1.106;2022-07-06T08:17:42;102067.85;;;17.81;59.42
45350;BME280;31086;51.702;-1.106;2022-07-06T08:20:11;102066.67;;;17.51;59.73
45350;BME280;31086;51.702;-1.106;2022-07-06T08:22:38;102067.67;;;17.78;59.38
45350;BME280;31086;51.702;-1.106;2022-07-06T08:25:06;102069.08;;;17.25;60.57
45350;BME280;31086;51.702;-1.106;2022-07-06T08:27:34;102063.75;;;17.90;59.16
45350;BME280;31086;51.702;-1.106;2022-07-06T08:30:01;102055.23;;;18.32;58.40
45350;BME280;31086;51.702;-1.106;2022-07-06T08:32:28;102051.26;;;18.49;57.53
45350;BME280;31086;51.702;-1.106;2022-07-06T08:34:55;102052.01;;;18.23;58.39
45350;BME280;31086;51.702;-1.106;2022-07-06T08:37:22;102050.09;;;17.71;59.15
45350;BME280;31086;51.702;-1.106;2022-07-06T08:39:49;102042.71;;;17.84;59.23
45350;BME280;31086;51.702;-1.106;2022-07-06T08:42:17;102047.67;;;18.14;59.05
45350;BME280;31086;51.702;-1.106;2022-07-06T08:44:45;102036.78;;;17.36;60.51
45350;BME280;31086;51.702;-1.106;2022-07-06T08:47:14;102038.85;;;17.99;59.12
45350;BME280;31086;51.702;-1.106;2022-07-06T08:49:42;102039.94;;;18.31;59.24
45350;BME280;31086;51.702;-1.106;2022-07-06T08:52:11;102035.55;;;18.35;57.98
45350;BME280;31086;51.702;-1.106;2022-07-06T08:54:38;102037.27;;;18.54;57.08
45350;BME280;31086;51.702;-1.106;2022-07-06T08:57:07;102033.54;;;18.44;57.69
45350;BME280;31086;51.702;-1.106;2022-07-06T08:59:34;102035.83;;;19.12;55.84
45350;BME280;31086;51.702;-1.106;2022-07-06T09:02:03;102028.94;;;19.37;55.93
45350;BME280;31086;51.702;-1.106;2022-07-06T09:04:33;102036.45;;;19.18;55.86
45350;BME280;31086;51.702;-1.106;2022-07-06T09:07:02;102030.23;;;19.34;55.79
45350;BME280;31086;51.702;-1.106;2022-07-06T09:09:30;102029.35;;;19.40;55.88
45350;BME280;31086;51.702;-1.106;2022-07-06T09:11:58;102027.40;;;19.87;55.21
45350;BME280;31086;51.702;-1.106;2022-07-06T09:14:25;102024.18;;;19.52;54.45
45350;BME280;31086;51.702;-1.106;2022-07-06T09:17:01;102026.42;;;19.69;54.26
45350;BME280;31086;51.702;-1.106;2022-07-06T09:19:29;102022.59;;;19.95;53.60
45350;BME280;31086;51.702;-1.106;2022-07-06T09:21:57;102018.70;;;19.42;54.69
45350;BME280;31086;51.702;-1.106;2022-07-06T09:24:24;102020.40;;;19.07;54.12
45350;BME280;31086;51.702;-1.106;2022-07-06T09:26:54;102014.48;;;19.53;54.73
45350;BME280;31086;51.702;-1.106;2022-07-06T09:29:27;102018.83;;;19.73;54.07
45350;BME280;31086;51.702;-1.106;2022-07-06T09:31:58;102022.05;;;19.90;54.11
45350;BME280;31086;51.702;-1.106;2022-07-06T09:34:27;102019.65;;;19.36;55.66
45350;BME280;31086;51.702;-1.106;2022-07-06T09:37:07;102026.04;;;19.21;55.02
45350;BME280;31086;51.702;-1.106;2022-07-06T09:39:34;102013.30;;;19.81;54.63
45350;BME280;31086;51.702;-1.106;2022-07-06T09:42:03;102008.73;;;19.91;54.31
45350;BME280;31086;51.702;-1.106;2022-07-06T09:44:33;102007.39;;;20.00;53.32
45350;BME280;31086;51.702;-1.106;2022-07-06T09:47:05;102019.17;;;19.33;53.99
45350;BME280;31086;51.702;-1.106;2022-07-06T09:49:33;102014.97;;;20.09;54.04
45350;BME280;31086;51.702;-1.106;2022-07-06T09:52:02;102013.19;;;19.75;53.45
45350;BME280;31086;51.702;-1.106;2022-07-06T09:54:29;102010.41;;;19.82;53.84
45350;BME280;31086;51.702;-1.106;2022-07-06T09:56:57;102017.37;;;19.75;53.23
45350;BME280;31086;51.702;-1.106;2022-07-06T09:59:26;102009.79;;;20.06;52.52
45350;BME280;31086;51.702;-1.106;2022-07-06T10:01:54;102016.10;;;20.10;52.81
45350;BME280;31086;51.702;-1.106;2022-07-06T10:04:23;102019.66;;;19.81;52.98
45350;BME280;31086;51.702;-1.106;2022-07-06T10:06:51;102015.69;;;20.03;52.70
45350;BME280;31086;51.702;-1.106;2022-07-06T10:09:19;102014.46;;;19.63;53.67
45350;BME280;31086;51.702;-1.106;2022-07-06T10:11:49;102017.95;;;19.93;52.85
45350;BME280;31086;51.702;-1.106;2022-07-06T10:14:20;102012.60;;;20.50;51.97
45350;BME280;31086;51.702;-1.106;2022-07-06T10:16:48;102011.46;;;20.22;52.50
45350;BME280;31086;51.702;-1.106;2022-07-06T10:19:17;102009.78;;;19.87;52.80
45350;BME280;31086;51.702;-1.106;2022-07-06T10:21:45;102006.35;;;19.94;52.97
45350;BME280;31086;51.702;-1.106;2022-07-06T10:24:13;102013.37;;;20.16;53.52
45350;BME280;31086;51.702;-1.106;2022-07-06T10:26:41;102009.20;;;19.99;52.99
45350;BME280;31086;51.702;-1.106;2022-07-06T10:29:09;101999.19;;;19.93;53.03
45350;BME280;31086;51.702;-1.106;2022-07-06T10:31:39;101997.71;;;19.89;52.42
45350;BME280;31086;51.702;-1.106;2022-07-06T10:34:10;101995.68;;;19.78;53.41
45350;BME280;31086;51.702;-1.106;2022-07-06T10:36:39;101996.13;;;19.78;53.36
45350;BME280;31086;51.702;-1.106;2022-07-06T10:39:07;102002.68;;;19.30;54.26
45350;BME280;31086;51.702;-1.106;2022-07-06T10:41:35;102001.40;;;19.53;54.62
45350;BME280;31086;51.702;-1.106;2022-07-06T10:44:15;102006.64;;;19.76;53.76
45350;BME280;31086;51.702;-1.106;2022-07-06T10:46:50;101994.70;;;19.58;54.33
45350;BME280;31086;51.702;-1.106;2022-07-06T10:49:18;102000.42;;;19.19;54.96
45350;BME280;31086;51.702;-1.106;2022-07-06T10:51:46;102002.98;;;18.83;55.69
45350;BME280;31086;51.702;-1.106;2022-07-06T10:54:15;102006.08;;;19.50;54.32
45350;BME280;31086;51.702;-1.106;2022-07-06T10:56:44;102009.64;;;19.67;54.29
45350;BME280;31086;51.702;-1.106;2022-07-06T10:59:13;102008.58;;;19.65;53.97
45350;BME280;31086;51.702;-1.106;2022-07-06T11:01:42;102006.02;;;19.91;53.95
45350;BME280;31086;51.702;-1.106;2022-07-06T11:04:38;102008.56;;;19.17;55.54
45350;BME280;31086;51.702;-1.106;2022-07-06T11:07:08;102006.44;;;18.80;56.26
45350;BME280;31086;51.702;-1.106;2022-07-06T11:09:36;102009.54;;;18.02;58.02
45350;BME280;31086;51.702;-1.106;2022-07-06T11:12:14;102013.66;;;18.67;56.03
45350;BME280;31086;51.702;-1.106;2022-07-06T11:14:42;102016.55;;;18.78;55.91
45350;BME280;31086;51.702;-1.106;2022-07-06T11:17:11;102016.92;;;19.37;54.95
45350;BME280;31086;51.702;-1.106;2022-07-06T11:19:39;102025.86;;;19.71;54.09
45350;BME280;31086;51.702;-1.106;2022-07-06T11:22:15;102026.94;;;19.32;54.55
45350;BME280;31086;51.702;-1.106;2022-07-06T11:24:43;102025.05;;;18.76;55.82
45350;BME280;31086;51.702;-1.106;2022-07-06T11:27:11;102017.38;;;18.82;55.45
45350;BME280;31086;51.702;-1.106;2022-07-06T11:29:39;102018.51;;;19.56;54.61
45350;BME280;31086;51.702;-1.106;2022-07-06T11:32:08;102024.07;;;19.22;54.53
45350;BME280;31086;51.702;-1.106;2022-07-06T11:34:36;102021.75;;;19.70;53.97
45350;BME280;31086;51.702;-1.106;2022-07-06T11:37:05;102020.40;;;19.45;54.38
45350;BME280;31086;51.702;-1.106;2022-07-06T11:39:34;102020.67;;;19.96;53.38
45350;BME280;31086;51.702;-1.106;2022-07-06T11:42:02;102019.45;;;20.00;52.43
45350;BME280;31086;51.702;-1.106;2022-07-06T11:44:30;102014.65;;;19.70;53.99
45350;BME280;31086;51.702;-1.106;2022-07-06T11:46:58;102020.00;;;19.96;53.28
45350;BME280;31086;51.702;-1.106;2022-07-06T11:49:26;102019.11;;;20.08;52.97
45350;BME280;31086;51.702;-1.106;2022-07-06T11:51:53;102022.32;;;19.95;53.42
45350;BME280;31086;51.702;-1.106;2022-07-06T11:54:22;102020.54;;;18.88;54.67
45350;BME280;31086;51.702;-1.106;2022-07-06T11:56:50;102016.21;;;19.72;54.00
45350;BME280;31086;51.702;-1.106;2022-07-06T11:59:21;102009.12;;;19.84;53.00
45350;BME280;31086;51.702;-1.106;2022-07-06T12:01:48;102002.06;;;20.39;51.73
45350;BME280;31086;51.702;-1.106;2022-07-06T12:04:16;101999.76;;;20.22;51.49
45350;BME280;31086;51.702;-1.106;2022-07-06T12:06:44;101997.34;;;20.59;51.56
45350;BME280;31086;51.702;-1.106;2022-07-06T12:09:11;101992.26;;;20.78;51.19
45350;BME280;31086;51.702;-1.106;2022-07-06T12:11:39;101996.74;;;20.34;51.63
45350;BME280;31086;51.702;-1.106;2022-07-06T12:14:13;101995.51;;;20.50;51.92
45350;BME280;31086;51.702;-1.106;2022-07-06T12:16:41;101997.03;;;20.47;51.62
45350;BME280;31086;51.702;-1.106;2022-07-06T12:19:09;101988.08;;;20.61;51.30
45350;BME280;31086;51.702;-1.106;2022-07-06T12:21:36;101993.82;;;20.34;51.81
45350;BME280;31086;51.702;-1.106;2022-07-06T12:24:09;101986.29;;;20.70;51.77
45350;BME280;31086;51.702;-1.106;2022-07-06T12:26:40;101981.36;;;20.77;51.53
45350;BME280;31086;51.702;-1.106;2022-07-06T12:29:11;101986.81;;;20.97;51.45
45350;BME280;31086;51.702;-1.106;2022-07-06T12:31:40;101986.13;;;20.92;50.84
45350;BME280;31086;51.702;-1.106;2022-07-06T12:34:14;101982.14;;;21.11;51.04
45350;BME280;31086;51.702;-1.106;2022-07-06T12:36:43;101981.20;;;20.55;51.40
45350;BME280;31086;51.702;-1.106;2022-07-06T12:39:11;101975.95;;;20.68;51.43
45350;BME280;31086;51.702;-1.106;2022-07-06T12:41:45;101966.26;;;20.51;51.51
45350;BME280;31086;51.702;-1.106;2022-07-06T12:44:13;101962.49;;;20.75;51.15